Time,TemperatureF,DewpointF,PressureIn,WindDirection,WindDirectionDegrees,WindSpeedMPH,WindSpeedGustMPH,Humidity,HourlyPrecipIn,Conditions,Clouds,dailyrainin,SolarRadiationWatts/m^2,SoftwareType,DateUTC
2013-01-09 00:02:00,31.0,26.0,-100.00,WSW,242,6.0,18.0,81,0.00,,,0.00,0.000000,,2013-01-09 06:02:00,
2013-01-09 00:22:00,31.0,26.0,-100.00,WSW,242,6.0,18.0,81,0.00,,,0.00,0.000000,,2013-01-09 06:22:00,
2013-01-09 00:32:00,31.0,26.0,-100.00,WSW,242,6.0,18.0,81,0.00,,,0.00,0.000000,,2013-01-09 06:32:00,
2013-01-09 00:42:00,31.0,26.0,-100.00,WSW,242,6.0,18.0,81,0.00,,,0.00,0.000000,,2013-01-09 06:42:00,
2013-01-09 00:52:00,31.0,26.0,-100.00,WSW,242,6.0,18.0,81,0.00,,,0.00,0.000000,,2013-01-09 06:52:00,
2013-01-09 01:02:00,30.0,25.0,-100.00,WSW,257,7.0,17.0,80,0.00,,,0.00,0.000000,,2013-01-09 07:02:00,
2013-01-09 01:32:00,30.0,25.0,-100.00,WSW,257,7.0,17.0,80,0.00,,,0.00,0.000000,,2013-01-09 07:32:00,
2013-01-09 01:42:00,30.0,25.0,-100.00,WSW,257,7.0,17.0,80,0.00,,,0.00,0.000000,,2013-01-09 07:42:00,
2013-01-09 01:52:00,30.0,25.0,-100.00,WSW,257,7.0,17.0,80,0.00,,,0.00,0.000000,,2013-01-09 07:52:00,
2013-01-09 02:02:00,30.0,25.0,-100.00,SW,232,7.0,14.0,80,0.00,,,0.00,0.000000,,2013-01-09 08:02:00,
2013-01-09 02:22:00,30.0,25.0,-100.00,SW,232,7.0,14.0,80,0.00,,,0.00,0.000000,,2013-01-09 08:22:00,
2013-01-09 02:32:00,30.0,25.0,-100.00,SW,232,7.0,14.0,80,0.00,,,0.00,0.000000,,2013-01-09 08:32:00,
2013-01-09 02:43:00,30.0,25.0,-100.00,SW,232,7.0,14.0,80,0.00,,,0.00,0.000000,,2013-01-09 08:43:00,
2013-01-09 02:53:00,30.0,25.0,-100.00,SW,232,7.0,14.0,80,0.00,,,0.00,0.000000,,2013-01-09 08:53:00,
2013-01-09 03:02:00,30.0,25.0,-100.00,WSW,244,6.0,15.0,81,0.00,,,0.00,0.000000,,2013-01-09 09:02:00,
2013-01-09 03:22:00,30.0,25.0,-100.00,WSW,244,6.0,15.0,81,0.00,,,0.00,0.000000,,2013-01-09 09:22:00,
2013-01-09 03:32:00,30.0,25.0,-100.00,WSW,244,6.0,15.0,81,0.00,,,0.00,0.000000,,2013-01-09 09:32:00,
2013-01-09 03:42:00,30.0,25.0,-100.00,WSW,244,6.0,15.0,81,0.00,,,0.00,0.000000,,2013-01-09 09:42:00,
2013-01-09 03:53:00,30.0,25.0,-100.00,WSW,244,6.0,15.0,81,0.00,,,0.00,0.000000,,2013-01-09 09:53:00,
2013-01-09 04:02:00,28.0,24.0,-100.00,SW,230,6.0,15.0,83,0.00,,,0.00,0.000000,,2013-01-09 10:02:00,
2013-01-09 04:32:00,28.0,24.0,-100.00,SW,230,6.0,15.0,83,0.00,,,0.00,0.000000,,2013-01-09 10:32:00,
2013-01-09 04:42:00,28.0,24.0,-100.00,SW,230,6.0,15.0,83,0.00,,,0.00,0.000000,,2013-01-09 10:42:00,
2013-01-09 04:52:00,28.0,24.0,-100.00,SW,230,6.0,15.0,83,0.00,,,0.00,0.000000,,2013-01-09 10:52:00,
2013-01-09 05:02:00,29.0,24.0,-100.00,SW,236,6.0,15.0,80,0.00,,,0.00,0.000000,,2013-01-09 11:02:00,
2013-01-09 05:33:00,29.0,24.0,-100.00,SW,236,6.0,15.0,80,0.00,,,0.00,0.000000,,2013-01-09 11:33:00,
2013-01-09 05:42:00,29.0,24.0,-100.00,SW,236,6.0,15.0,80,0.00,,,0.00,0.000000,,2013-01-09 11:42:00,
2013-01-09 05:53:00,29.0,24.0,-100.00,SW,236,6.0,15.0,80,0.00,,,0.00,0.000000,,2013-01-09 11:53:00,
2013-01-09 06:02:00,30.0,23.0,-100.00,WSW,239,8.0,18.0,75,0.00,,,0.00,0.000000,,2013-01-09 12:02:00,
2013-01-09 06:23:00,30.0,23.0,-100.00,WSW,239,8.0,18.0,75,0.00,,,0.00,0.000000,,2013-01-09 12:23:00,
2013-01-09 06:33:00,30.0,23.0,-100.00,WSW,239,8.0,18.0,75,0.00,,,0.00,0.000000,,2013-01-09 12:33:00,
2013-01-09 06:43:00,30.0,23.0,-100.00,WSW,239,8.0,18.0,75,0.00,,,0.00,0.000000,,2013-01-09 12:43:00,
2013-01-09 06:53:00,30.0,23.0,-100.00,WSW,239,8.0,18.0,75,0.00,,,0.00,0.000000,,2013-01-09 12:53:00,
2013-01-09 07:02:00,31.0,23.0,-100.00,WSW,252,10.0,29.0,71,0.00,,,0.00,0.000000,,2013-01-09 13:02:00,
2013-01-09 07:23:00,31.0,23.0,-100.00,WSW,252,10.0,29.0,71,0.00,,,0.00,0.000000,,2013-01-09 13:23:00,
2013-01-09 07:33:00,31.0,23.0,-100.00,WSW,252,10.0,29.0,71,0.00,,,0.00,0.000000,,2013-01-09 13:33:00,
2013-01-09 07:43:00,31.0,23.0,-100.00,WSW,252,10.0,29.0,71,0.00,,,0.00,0.000000,,2013-01-09 13:43:00,
2013-01-09 07:53:00,31.0,23.0,-100.00,WSW,252,10.0,29.0,71,0.00,,,0.00,0.000000,,2013-01-09 13:53:00,
2013-01-09 08:02:00,30.0,21.0,-100.00,WNW,284,9.0,27.0,68,0.00,,,0.00,1.000000,,2013-01-09 14:02:00,
2013-01-09 08:23:00,30.0,21.0,-100.00,WNW,284,9.0,27.0,68,0.00,,,0.00,1.000000,,2013-01-09 14:23:00,
2013-01-09 08:33:00,30.0,21.0,-100.00,WNW,284,9.0,27.0,68,0.00,,,0.00,1.000000,,2013-01-09 14:33:00,
2013-01-09 08:43:00,30.0,21.0,-100.00,WNW,284,9.0,27.0,68,0.00,,,0.00,1.000000,,2013-01-09 14:43:00,
2013-01-09 08:53:00,30.0,21.0,-100.00,WNW,284,9.0,27.0,68,0.00,,,0.00,1.000000,,2013-01-09 14:53:00,
2013-01-09 09:02:00,30.0,20.0,-100.00,WNW,289,9.0,24.0,66,0.00,,,0.00,24.000000,,2013-01-09 15:02:00,
2013-01-09 09:23:00,30.0,20.0,-100.00,WNW,289,9.0,24.0,66,0.00,,,0.00,24.000000,,2013-01-09 15:23:00,
2013-01-09 09:33:00,30.0,20.0,-100.00,WNW,289,9.0,24.0,66,0.00,,,0.00,24.000000,,2013-01-09 15:33:00,
2013-01-09 09:43:00,30.0,20.0,-100.00,WNW,289,9.0,24.0,66,0.00,,,0.00,24.000000,,2013-01-09 15:43:00,
2013-01-09 09:53:00,30.0,20.0,-100.00,WNW,289,9.0,24.0,66,0.00,,,0.00,24.000000,,2013-01-09 15:53:00,
2013-01-09 10:02:00,30.0,20.0,-100.00,WNW,283,10.0,26.0,65,0.00,,,0.00,60.000000,,2013-01-09 16:02:00,
2013-01-09 10:23:00,30.0,20.0,-100.00,WNW,283,10.0,26.0,65,0.00,,,0.00,60.000000,,2013-01-09 16:23:00,
2013-01-09 10:34:00,30.0,20.0,-100.00,WNW,283,10.0,26.0,65,0.00,,,0.00,60.000000,,2013-01-09 16:34:00,
2013-01-09 10:43:00,30.0,20.0,-100.00,WNW,283,10.0,26.0,65,0.00,,,0.00,60.000000,,2013-01-09 16:43:00,
2013-01-09 10:53:00,30.0,20.0,-100.00,WNW,283,10.0,26.0,65,0.00,,,0.00,60.000000,,2013-01-09 16:53:00,
2013-01-09 11:02:00,31.0,19.0,-100.00,WNW,296,9.0,20.0,60,0.00,,,0.00,177.000000,,2013-01-09 17:02:00,
2013-01-09 11:23:00,31.0,19.0,-100.00,WNW,296,9.0,20.0,60,0.00,,,0.00,177.000000,,2013-01-09 17:23:00,
2013-01-09 11:33:00,31.0,19.0,-100.00,WNW,296,9.0,20.0,60,0.00,,,0.00,177.000000,,2013-01-09 17:33:00,
2013-01-09 11:43:00,31.0,19.0,-100.00,WNW,296,9.0,20.0,60,0.00,,,0.00,177.000000,,2013-01-09 17:43:00,
2013-01-09 11:53:00,31.0,19.0,-100.00,WNW,296,9.0,20.0,60,0.00,,,0.00,177.000000,,2013-01-09 17:53:00,
2013-01-09 12:02:00,33.0,20.0,-100.00,WNW,293,7.0,20.0,58,0.00,,,0.00,355.000000,,2013-01-09 18:02:00,
2013-01-09 12:24:00,33.0,20.0,-100.00,WNW,293,7.0,20.0,58,0.00,,,0.00,355.000000,,2013-01-09 18:24:00,
2013-01-09 12:33:00,33.0,20.0,-100.00,WNW,293,7.0,20.0,58,0.00,,,0.00,355.000000,,2013-01-09 18:33:00,
2013-01-09 12:43:00,33.0,20.0,-100.00,WNW,293,7.0,20.0,58,0.00,,,0.00,355.000000,,2013-01-09 18:43:00,
2013-01-09 12:53:00,33.0,20.0,-100.00,WNW,293,7.0,20.0,58,0.00,,,0.00,355.000000,,2013-01-09 18:53:00,
2013-01-09 14:02:00,35.0,19.0,-100.00,West,270,7.0,16.0,52,-99.99,,,0.00,394.000000,,2013-01-09 20:02:00,
2013-01-09 14:33:00,35.0,19.0,-100.00,West,270,7.0,16.0,52,-99.99,,,0.00,394.000000,,2013-01-09 20:33:00,
2013-01-09 14:43:00,35.0,19.0,-100.00,West,270,7.0,16.0,52,-99.99,,,0.00,394.000000,,2013-01-09 20:43:00,
2013-01-09 14:53:00,35.0,19.0,-100.00,West,270,7.0,16.0,52,-99.99,,,0.00,394.000000,,2013-01-09 20:53:00,
2013-01-09 15:02:00,35.0,18.0,-100.00,West,268,7.0,15.0,50,0.00,,,0.00,298.000000,,2013-01-09 21:02:00,
2013-01-09 15:33:00,35.0,18.0,-100.00,West,268,7.0,15.0,50,0.00,,,0.00,298.000000,,2013-01-09 21:33:00,
2013-01-09 15:43:00,35.0,18.0,-100.00,West,268,7.0,15.0,50,0.00,,,0.00,298.000000,,2013-01-09 21:43:00,
2013-01-09 15:53:00,35.0,18.0,-100.00,West,268,7.0,15.0,50,0.00,,,0.00,298.000000,,2013-01-09 21:53:00,
2013-01-09 16:02:00,32.0,17.0,-100.00,WSW,255,5.0,16.0,53,0.00,,,0.00,145.000000,,2013-01-09 22:02:00,
2013-01-09 16:23:00,32.0,17.0,-100.00,WSW,255,5.0,16.0,53,0.00,,,0.00,145.000000,,2013-01-09 22:23:00,
2013-01-09 16:33:00,32.0,17.0,-100.00,WSW,255,5.0,16.0,53,0.00,,,0.00,145.000000,,2013-01-09 22:33:00,
2013-01-09 16:43:00,32.0,17.0,-100.00,WSW,255,5.0,16.0,53,0.00,,,0.00,145.000000,,2013-01-09 22:43:00,
2013-01-09 16:52:00,32.0,17.0,-100.00,WSW,255,5.0,16.0,53,0.00,,,0.00,145.000000,,2013-01-09 22:52:00,
2013-01-09 17:02:00,29.0,17.0,-100.00,WSW,256,4.0,14.0,60,0.00,,,0.00,10.000000,,2013-01-09 23:02:00,
2013-01-09 17:33:00,29.0,17.0,-100.00,WSW,256,4.0,14.0,60,0.00,,,0.00,10.000000,,2013-01-09 23:33:00,
2013-01-09 17:43:00,29.0,17.0,-100.00,WSW,256,4.0,14.0,60,0.00,,,0.00,10.000000,,2013-01-09 23:43:00,
2013-01-09 17:53:00,29.0,17.0,-100.00,WSW,256,4.0,14.0,60,0.00,,,0.00,10.000000,,2013-01-09 23:53:00,
2013-01-09 18:02:00,27.0,16.0,-100.00,WSW,238,4.0,13.0,64,0.00,,,0.00,0.000000,,2013-01-10 00:02:00,
2013-01-09 18:33:00,27.0,16.0,-100.00,WSW,238,4.0,13.0,64,0.00,,,0.00,0.000000,,2013-01-10 00:33:00,
2013-01-09 18:43:00,27.0,16.0,-100.00,WSW,238,4.0,13.0,64,0.00,,,0.00,0.000000,,2013-01-10 00:43:00,
2013-01-09 18:53:00,27.0,16.0,-100.00,WSW,238,4.0,13.0,64,0.00,,,0.00,0.000000,,2013-01-10 00:53:00,
2013-01-09 19:02:00,25.0,16.0,-100.00,WSW,253,3.0,10.0,68,0.00,,,0.00,0.000000,,2013-01-10 01:02:00,
2013-01-09 19:33:00,25.0,16.0,-100.00,WSW,253,3.0,10.0,68,0.00,,,0.00,0.000000,,2013-01-10 01:33:00,
2013-01-09 19:43:00,25.0,16.0,-100.00,WSW,253,3.0,10.0,68,0.00,,,0.00,0.000000,,2013-01-10 01:43:00,
2013-01-09 19:53:00,25.0,16.0,-100.00,WSW,253,3.0,10.0,68,0.00,,,0.00,0.000000,,2013-01-10 01:53:00,
2013-01-09 20:02:00,23.0,15.0,-100.00,SW,220,2.0,7.0,72,0.00,,,0.00,0.000000,,2013-01-10 02:02:00,
2013-01-09 20:22:00,23.0,15.0,-100.00,SW,220,2.0,7.0,72,0.00,,,0.00,0.000000,,2013-01-10 02:22:00,
2013-01-09 20:33:00,23.0,15.0,-100.00,SW,220,2.0,7.0,72,0.00,,,0.00,0.000000,,2013-01-10 02:33:00,
2013-01-09 20:43:00,23.0,15.0,-100.00,SW,220,2.0,7.0,72,0.00,,,0.00,0.000000,,2013-01-10 02:43:00,
2013-01-09 20:52:00,23.0,15.0,-100.00,SW,220,2.0,7.0,72,0.00,,,0.00,0.000000,,2013-01-10 02:52:00,
2013-01-09 21:02:00,21.0,14.0,-100.00,West,277,1.0,5.0,74,0.00,,,0.00,0.000000,,2013-01-10 03:02:00,
2013-01-09 21:22:00,21.0,14.0,-100.00,West,277,1.0,5.0,74,0.00,,,0.00,0.000000,,2013-01-10 03:22:00,
2013-01-09 21:33:00,21.0,14.0,-100.00,West,277,1.0,5.0,74,0.00,,,0.00,0.000000,,2013-01-10 03:33:00,
2013-01-09 21:43:00,21.0,14.0,-100.00,West,277,1.0,5.0,74,0.00,,,0.00,0.000000,,2013-01-10 03:43:00,
2013-01-09 21:53:00,21.0,14.0,-100.00,West,277,1.0,5.0,74,0.00,,,0.00,0.000000,,2013-01-10 03:53:00,
2013-01-09 22:02:00,15.0,12.0,-100.00,SSE,155,2.0,4.0,88,0.00,,,0.00,0.000000,,2013-01-10 04:02:00,
2013-01-09 22:32:00,15.0,12.0,-100.00,SSE,155,2.0,4.0,88,0.00,,,0.00,0.000000,,2013-01-10 04:32:00,
2013-01-09 22:43:00,15.0,12.0,-100.00,SSE,155,2.0,4.0,88,0.00,,,0.00,0.000000,,2013-01-10 04:43:00,
2013-01-09 22:52:00,15.0,12.0,-100.00,SSE,155,2.0,4.0,88,0.00,,,0.00,0.000000,,2013-01-10 04:52:00,
2013-01-09 23:02:00,16.0,12.0,-100.00,ENE,64,1.0,4.0,84,0.00,,,0.00,0.000000,,2013-01-10 05:02:00,
2013-01-09 23:33:00,16.0,12.0,-100.00,ENE,64,1.0,4.0,84,0.00,,,0.00,0.000000,,2013-01-10 05:33:00,
2013-01-09 23:43:00,16.0,12.0,-100.00,ENE,64,1.0,4.0,84,0.00,,,0.00,0.000000,,2013-01-10 05:43:00,
2013-01-09 23:53:00,16.0,12.0,-100.00,ENE,64,1.0,4.0,84,0.00,,,0.00,0.000000,,2013-01-10 05:53:00,